createdAt,value
2022-10-23T00:02:20.247Z,100.00
2022-10-23T00:05:23.862Z,100.00
2022-10-23T00:08:27.685Z,100.00
2022-10-23T00:11:31.574Z,100.00
2022-10-23T00:14:34.529Z,100.00
2022-10-23T00:17:37.012Z,100.00
2022-10-23T00:20:39.551Z,100.00
2022-10-23T00:23:44.239Z,100.00
2022-10-23T00:26:46.726Z,100.00
2022-10-23T00:29:49.337Z,100.00
2022-10-23T00:32:51.831Z,100.00
2022-10-23T00:35:54.324Z,100.00
2022-10-23T00:38:58.150Z,100.00
2022-10-23T00:42:00.676Z,100.00
2022-10-23T00:45:20.450Z,100.00
2022-10-23T00:48:23.534Z,100.00
2022-10-23T00:51:29.262Z,100.00
2022-10-23T00:54:37.427Z,100.00
2022-10-23T00:57:43.685Z,100.00
2022-10-23T01:00:48.437Z,100.00
2022-10-23T01:03:51.653Z,100.00
2022-10-23T01:07:01.560Z,100.00
2022-10-23T01:10:12.476Z,100.00
2022-10-23T01:13:20.905Z,100.00
2022-10-23T01:16:32.189Z,100.00
2022-10-23T01:19:49.697Z,100.00
2022-10-23T01:23:15.387Z,100.00
2022-10-23T01:26:36.504Z,100.00
2022-10-23T01:29:44.689Z,100.00
2022-10-23T01:32:51.966Z,100.00
2022-10-23T01:36:01.958Z,100.00
2022-10-23T01:39:08.510Z,100.00
2022-10-23T01:42:15.151Z,100.00
2022-10-23T01:45:22.716Z,100.00
2022-10-23T01:48:29.205Z,100.00
2022-10-23T01:51:34.350Z,100.00
2022-10-23T01:54:40.984Z,100.00
2022-10-23T01:57:46.447Z,100.00
2022-10-23T02:00:52.725Z,100.00
2022-10-23T02:06:59.620Z,100.00
2022-10-23T02:10:04.278Z,100.00
2022-10-23T02:13:11.187Z,100.00
2022-10-23T02:16:24.136Z,100.00
2022-10-23T02:19:32.715Z,100.00
2022-10-23T02:22:41.371Z,100.00
2022-10-23T02:25:50.601Z,100.00
2022-10-23T02:28:58.762Z,100.00
2022-10-23T02:32:03.081Z,100.00
2022-10-23T02:35:06.822Z,100.00
2022-10-23T02:38:28.289Z,100.00
2022-10-23T02:41:39.087Z,100.00
2022-10-23T02:44:51.340Z,100.00
2022-10-23T02:48:01.580Z,100.00
2022-10-23T02:51:09.531Z,100.00
2022-10-23T02:54:21.466Z,100.00
2022-10-23T02:57:31.673Z,100.00
2022-10-23T03:00:36.870Z,100.00
2022-10-23T03:03:43.461Z,100.00
2022-10-23T03:06:46.362Z,100.00
2022-10-23T03:09:48.918Z,100.00
2022-10-23T03:12:51.782Z,100.00
2022-10-23T03:15:54.249Z,100.00
2022-10-23T03:18:58.235Z,100.00
2022-10-23T03:22:00.774Z,100.00
2022-10-23T03:25:03.250Z,100.00
2022-10-23T03:28:05.737Z,100.00
2022-10-23T03:31:08.224Z,100.00
2022-10-23T03:34:13.948Z,100.00
2022-10-23T03:37:16.432Z,100.00
2022-10-23T03:40:18.934Z,100.00
2022-10-23T03:43:21.434Z,100.00
2022-10-23T03:46:24.276Z,100.00
2022-10-23T03:49:28.123Z,100.00
2022-10-23T03:52:30.639Z,100.00
2022-10-23T03:55:33.153Z,100.00
2022-10-23T03:58:35.681Z,100.00
2022-10-23T04:01:38.307Z,100.00
2022-10-23T04:04:42.250Z,100.00
2022-10-23T04:07:44.757Z,100.00
2022-10-23T04:10:47.272Z,100.00
2022-10-23T04:13:49.960Z,100.00
2022-10-23T04:16:52.427Z,100.00
2022-10-23T04:19:56.755Z,100.00
2022-10-23T04:22:59.225Z,100.00
2022-10-23T04:26:01.891Z,100.00
2022-10-23T04:29:04.608Z,100.00
2022-10-23T04:32:07.847Z,100.00
2022-10-23T04:35:11.664Z,100.00
2022-10-23T04:38:14.140Z,100.00
2022-10-23T04:41:16.732Z,100.00
2022-10-23T04:44:19.254Z,100.00
2022-10-23T04:47:21.726Z,100.00
2022-10-23T04:50:25.570Z,100.00
2022-10-23T04:53:29.547Z,100.00
2022-10-23T04:56:32.040Z,100.00
2022-10-23T04:59:34.790Z,100.00
2022-10-23T05:02:37.275Z,100.00
2022-10-23T05:05:41.420Z,100.00
2022-10-23T05:08:43.923Z,100.00
2022-10-23T05:11:46.431Z,100.00
2022-10-23T05:14:48.922Z,100.00
2022-10-23T05:17:55.753Z,100.00
2022-10-23T05:21:02.422Z,100.00
2022-10-23T05:24:05.608Z,100.00
2022-10-23T05:27:08.089Z,100.00
2022-10-23T05:30:12.122Z,100.00
2022-10-23T05:33:15.012Z,100.00
2022-10-23T05:36:19.114Z,100.00
2022-10-23T05:39:21.982Z,100.00
2022-10-23T05:42:24.525Z,100.00
2022-10-23T05:45:27.108Z,100.00
2022-10-23T05:48:34.619Z,100.00
2022-10-23T05:51:39.274Z,100.00
2022-10-23T05:54:41.771Z,100.00
2022-10-23T05:57:44.593Z,100.00
2022-10-23T06:00:47.302Z,100.00
2022-10-23T06:03:51.194Z,100.00
2022-10-23T06:06:55.043Z,100.00
2022-10-23T06:09:57.513Z,100.00
2022-10-23T06:12:59.991Z,100.00
2022-10-23T06:16:09.937Z,100.00
2022-10-23T06:19:12.865Z,100.00
2022-10-23T06:22:16.856Z,100.00
2022-10-23T06:25:19.386Z,100.00
2022-10-23T06:28:21.953Z,100.00
2022-10-23T06:31:26.802Z,100.00
2022-10-23T06:34:29.472Z,100.00
2022-10-23T06:37:34.509Z,100.00
2022-10-23T06:40:37.067Z,100.00
2022-10-23T06:43:39.617Z,100.00
2022-10-23T06:46:42.271Z,100.00
2022-10-23T06:49:44.741Z,100.00
2022-10-23T06:52:48.629Z,100.00
2022-10-23T06:55:54.535Z,100.00
2022-10-23T06:58:58.281Z,100.00
2022-10-23T07:02:00.754Z,100.00
2022-10-23T07:05:03.276Z,100.00
2022-10-23T07:08:07.694Z,100.00
2022-10-23T07:11:12.262Z,100.00
2022-10-23T07:14:14.744Z,100.00
2022-10-23T07:17:17.302Z,100.00
2022-10-23T07:20:19.798Z,100.00
2022-10-23T07:23:23.620Z,100.00
2022-10-23T07:26:26.150Z,100.00
2022-10-23T07:29:28.646Z,100.00
2022-10-23T07:32:31.146Z,100.00
2022-10-23T07:35:36.986Z,100.00
2022-10-23T07:38:42.996Z,100.00
2022-10-23T07:41:45.474Z,100.00
2022-10-23T07:44:47.983Z,100.00
2022-10-23T07:47:51.791Z,100.00
2022-10-23T07:50:55.517Z,100.00
2022-10-23T07:53:59.330Z,100.00
2022-10-23T07:57:02.373Z,100.00
2022-10-23T08:00:06.136Z,100.00
2022-10-23T08:03:08.662Z,100.00
2022-10-23T08:06:11.301Z,100.00
2022-10-23T08:09:15.146Z,100.00
2022-10-23T08:12:17.621Z,100.00
2022-10-23T08:15:20.107Z,100.00
2022-10-23T08:18:22.641Z,100.00
2022-10-23T08:21:25.354Z,100.00
2022-10-23T08:24:29.213Z,100.00
2022-10-23T08:27:31.682Z,100.00
2022-10-23T08:30:34.535Z,100.00
2022-10-23T08:33:37.161Z,100.00
2022-10-23T08:36:40.205Z,100.00
2022-10-23T08:39:44.219Z,100.00
2022-10-23T08:42:53.061Z,100.00
2022-10-23T08:46:00.999Z,100.00
2022-10-23T08:49:18.752Z,100.00
2022-10-23T08:52:26.153Z,100.00
2022-10-23T08:55:34.082Z,100.00
2022-10-23T08:58:45.790Z,100.00
2022-10-23T09:01:53.227Z,100.00
2022-10-23T09:04:58.074Z,100.00
2022-10-23T09:08:13.552Z,100.00
2022-10-23T09:11:24.126Z,100.00
2022-10-23T09:14:41.212Z,100.00
2022-10-23T09:17:44.914Z,100.00
2022-10-23T09:20:48.269Z,100.00
2022-10-23T09:23:50.751Z,100.00
2022-10-23T09:26:55.460Z,100.00
2022-10-23T09:29:59.304Z,100.00
2022-10-23T09:33:13.318Z,100.00
2022-10-23T09:36:23.416Z,100.00
2022-10-23T09:39:30.101Z,100.00
2022-10-23T09:42:33.934Z,100.00
2022-10-23T09:45:38.998Z,100.00
2022-10-23T09:48:42.147Z,100.00
2022-10-23T09:52:05.395Z,100.00
2022-10-23T09:55:23.089Z,100.00
2022-10-23T09:58:32.459Z,100.00
2022-10-23T10:01:37.400Z,100.00
2022-10-23T10:04:41.515Z,100.00
2022-10-23T10:07:56.525Z,100.00
2022-10-23T10:11:03.431Z,100.00
2022-10-23T10:14:31.855Z,100.00
2022-10-23T10:17:43.116Z,100.00
2022-10-23T10:21:09.982Z,100.00
2022-10-23T10:24:18.780Z,100.00
2022-10-23T10:27:36.156Z,100.00
2022-10-23T10:30:51.818Z,100.00
2022-10-23T10:34:07.685Z,100.00
2022-10-23T10:37:22.345Z,100.00
2022-10-23T10:40:30.708Z,100.00
2022-10-23T10:43:44.647Z,100.00
2022-10-23T10:46:57.170Z,100.00
2022-10-23T10:50:09.556Z,100.00
2022-10-23T10:53:21.011Z,99.40
2022-10-23T10:56:28.737Z,99.67
2022-10-23T10:59:37.669Z,94.30
2022-10-23T11:02:47.008Z,93.41
2022-10-23T11:05:50.895Z,92.15
2022-10-23T11:08:58.198Z,94.61
2022-10-23T11:12:18.714Z,91.43
2022-10-23T11:15:26.059Z,93.41
2022-10-23T11:18:31.944Z,91.64
2022-10-23T11:21:40.735Z,89.90
2022-10-23T11:25:13.052Z,91.55
2022-10-23T11:28:24.597Z,94.01
2022-10-23T11:31:39.190Z,95.17
2022-10-23T11:35:02.806Z,96.31
2022-10-23T11:38:17.137Z,95.18
2022-10-23T11:41:25.568Z,96.52
2022-10-23T11:44:41.699Z,99.25
2022-10-23T11:47:44.215Z,93.92
2022-10-23T11:50:54.820Z,93.60
2022-10-23T11:54:08.885Z,95.57
2022-10-23T11:57:13.753Z,95.82
2022-10-23T12:00:22.731Z,99.26
2022-10-23T12:03:30.336Z,98.74
2022-10-23T12:06:40.631Z,93.45
2022-10-23T12:09:45.997Z,99.05
2022-10-23T12:12:57.439Z,99.97
2022-10-23T12:16:01.027Z,93.22
2022-10-23T12:19:20.651Z,95.07
2022-10-23T12:25:57.574Z,91.64
2022-10-23T12:29:11.745Z,88.10
2022-10-23T12:32:31.902Z,91.33
2022-10-23T12:36:04.097Z,92.01
2022-10-23T12:39:32.272Z,98.56
2022-10-23T12:42:35.016Z,94.38
2022-10-23T12:45:40.994Z,95.59
2022-10-23T12:48:49.089Z,91.63
2022-10-23T12:52:03.044Z,92.07
2022-10-23T12:55:14.883Z,93.05
2022-10-23T12:58:21.868Z,94.16
2022-10-23T13:01:27.590Z,94.89
2022-10-23T13:04:32.170Z,97.23
2022-10-23T13:07:37.971Z,99.15
2022-10-23T13:10:43.036Z,100.00
2022-10-23T13:13:47.061Z,100.00
2022-10-23T13:17:00.137Z,100.00
2022-10-23T13:20:22.818Z,100.00
2022-10-23T13:23:31.502Z,100.00
2022-10-23T13:26:43.059Z,100.00
2022-10-23T13:29:45.958Z,100.00
2022-10-23T13:32:48.518Z,100.00
2022-10-23T13:35:58.567Z,100.00
2022-10-23T13:39:04.482Z,100.00
2022-10-23T13:42:15.165Z,100.00
2022-10-23T13:45:22.512Z,100.00
2022-10-23T13:48:25.925Z,100.00
2022-10-23T13:51:31.718Z,100.00
2022-10-23T13:54:34.225Z,100.00
2022-10-23T13:57:38.131Z,100.00
2022-10-23T14:00:43.176Z,100.00
2022-10-23T14:03:45.662Z,100.00
2022-10-23T14:06:48.231Z,100.00
2022-10-23T14:09:50.856Z,100.00
2022-10-23T14:12:55.163Z,100.00
2022-10-23T14:15:57.660Z,100.00
2022-10-23T14:19:00.254Z,100.00
2022-10-23T14:22:02.758Z,100.00
2022-10-23T14:25:05.968Z,100.00
2022-10-23T14:28:09.803Z,100.00
2022-10-23T14:31:14.294Z,100.00
2022-10-23T14:34:16.802Z,100.00
2022-10-23T14:37:19.519Z,100.00
2022-10-23T14:40:22.024Z,100.00
2022-10-23T14:43:26.449Z,100.00
2022-10-23T14:46:29.445Z,100.00
2022-10-23T14:49:32.324Z,100.00
2022-10-23T14:52:34.810Z,100.00
2022-10-23T14:55:37.386Z,100.00
2022-10-23T14:58:42.408Z,100.00
2022-10-23T15:01:48.357Z,100.00
2022-10-23T15:04:51.121Z,100.00
2022-10-23T15:07:53.604Z,100.00
2022-10-23T15:11:00.108Z,100.00
2022-10-23T15:14:04.050Z,100.00
2022-10-23T15:17:06.533Z,100.00
2022-10-23T15:20:09.803Z,100.00
2022-10-23T15:23:12.282Z,100.00
2022-10-23T15:26:20.411Z,100.00
2022-10-23T15:29:24.254Z,100.00
2022-10-23T15:32:26.798Z,100.00
2022-10-23T15:35:29.322Z,100.00
2022-10-23T15:38:31.831Z,100.00
2022-10-23T15:41:36.075Z,100.00
2022-10-23T15:44:41.501Z,100.00
2022-10-23T15:47:44.186Z,100.00
2022-10-23T15:50:46.930Z,100.00
2022-10-23T15:53:49.658Z,100.00
2022-10-23T15:56:54.064Z,100.00
2022-10-23T15:59:57.889Z,100.00
2022-10-23T16:03:00.379Z,100.00
2022-10-23T16:06:04.874Z,100.00
2022-10-23T16:09:07.412Z,100.00
2022-10-23T16:12:10.186Z,100.00
2022-10-23T16:15:13.993Z,100.00
2022-10-23T16:18:18.028Z,100.00
2022-10-23T16:21:22.819Z,100.00
2022-10-23T16:24:25.857Z,100.00
2022-10-23T16:27:28.385Z,100.00
2022-10-23T16:30:32.566Z,100.00
2022-10-23T16:33:35.093Z,100.00
2022-10-23T16:36:39.356Z,100.00
2022-10-23T16:39:41.899Z,100.00
2022-10-23T16:42:44.700Z,100.00
2022-10-23T16:45:48.670Z,100.00
2022-10-23T16:48:52.519Z,100.00
2022-10-23T16:51:54.986Z,100.00
2022-10-23T16:54:57.490Z,100.00
2022-10-23T16:58:00.567Z,100.00
2022-10-23T17:01:06.719Z,100.00
2022-10-23T17:04:09.293Z,100.00
2022-10-23T17:07:13.042Z,100.00
2022-10-23T17:10:15.775Z,100.00
2022-10-23T17:13:18.295Z,100.00
2022-10-23T17:16:25.198Z,100.00
2022-10-23T17:19:44.657Z,100.00
2022-10-23T17:22:48.317Z,100.00
2022-10-23T17:25:50.798Z,100.00
2022-10-23T17:28:53.304Z,100.00
2022-10-23T17:31:57.127Z,100.00
2022-10-23T17:34:59.630Z,100.00
2022-10-23T17:38:02.323Z,100.00
2022-10-23T17:41:05.860Z,100.00
2022-10-23T17:44:08.404Z,100.00
2022-10-23T17:47:12.328Z,100.00
2022-10-23T17:50:15.058Z,100.00
2022-10-23T17:53:17.520Z,100.00
2022-10-23T17:56:22.570Z,100.00
2022-10-23T17:59:25.028Z,100.00
2022-10-23T18:02:28.946Z,100.00
2022-10-23T18:05:32.815Z,100.00
2022-10-23T18:08:35.872Z,100.00
2022-10-23T18:11:45.602Z,100.00
2022-10-23T18:14:50.446Z,100.00
2022-10-23T18:17:54.281Z,100.00
2022-10-23T18:20:58.817Z,100.00
2022-10-23T18:24:02.063Z,100.00
2022-10-23T18:27:04.774Z,100.00
2022-10-23T18:30:08.483Z,100.00
2022-10-23T18:33:12.315Z,100.00
2022-10-23T18:36:16.868Z,100.00
2022-10-23T18:39:22.365Z,100.00
2022-10-23T18:42:25.042Z,100.00
2022-10-23T18:45:27.702Z,100.00
2022-10-23T18:48:31.731Z,100.00
2022-10-23T18:51:36.411Z,100.00
2022-10-23T18:54:39.080Z,100.00
2022-10-23T18:57:42.340Z,100.00
2022-10-23T19:00:45.901Z,100.00
2022-10-23T19:03:49.866Z,100.00
2022-10-23T19:06:52.382Z,100.00
2022-10-23T19:09:55.905Z,100.00
2022-10-23T19:12:58.416Z,100.00
2022-10-23T19:16:00.970Z,100.00
2022-10-23T19:19:08.207Z,100.00
2022-10-23T19:22:13.139Z,100.00
2022-10-23T19:25:20.031Z,100.00
2022-10-23T19:28:22.576Z,100.00
2022-10-23T19:31:26.501Z,100.00
2022-10-23T19:34:30.318Z,100.00
2022-10-23T19:37:32.814Z,100.00
2022-10-23T19:40:35.278Z,100.00
2022-10-23T19:43:38.053Z,100.00
2022-10-23T19:46:40.638Z,100.00
2022-10-23T19:49:44.468Z,100.00
2022-10-23T19:52:46.926Z,100.00
2022-10-23T19:55:49.436Z,100.00
2022-10-23T19:58:52.758Z,100.00
2022-10-23T20:01:55.340Z,100.00
2022-10-23T20:04:59.226Z,100.00
2022-10-23T20:08:01.688Z,100.00
2022-10-23T20:11:04.615Z,100.00
2022-10-23T20:14:07.640Z,100.00
2022-10-23T20:17:10.162Z,100.00
2022-10-23T20:20:14.021Z,100.00
2022-10-23T20:23:16.495Z,100.00
2022-10-23T20:26:21.205Z,100.00
2022-10-23T20:29:25.597Z,100.00
2022-10-23T20:32:28.084Z,100.00
2022-10-23T20:35:38.602Z,100.00
2022-10-23T20:38:41.113Z,100.00
2022-10-23T20:41:44.948Z,100.00
2022-10-23T20:44:47.496Z,100.00
2022-10-23T20:47:50.015Z,100.00
2022-10-23T20:50:53.848Z,100.00
2022-10-23T20:53:56.327Z,100.00
2022-10-23T20:56:59.378Z,100.00
2022-10-23T21:00:03.082Z,100.00
2022-10-23T21:03:05.812Z,100.00
2022-10-23T21:06:12.443Z,100.00
2022-10-23T21:09:15.185Z,100.00
2022-10-23T21:12:17.993Z,100.00
2022-10-23T21:15:20.776Z,100.00
2022-10-23T21:18:27.315Z,100.00
2022-10-23T21:21:48.913Z,100.00
2022-10-23T21:24:51.389Z,100.00
2022-10-23T21:27:53.860Z,100.00
2022-10-23T21:30:56.355Z,100.00
2022-10-23T21:33:58.869Z,100.00
2022-10-23T21:37:13.353Z,100.00
2022-10-23T21:40:16.969Z,100.00
2022-10-23T21:43:19.655Z,100.00
2022-10-23T21:46:22.820Z,100.00
2022-10-23T21:49:25.377Z,100.00
2022-10-23T21:52:29.208Z,100.00
2022-10-23T21:55:32.058Z,100.00
2022-10-23T21:58:34.562Z,100.00
2022-10-23T22:01:37.133Z,100.00
2022-10-23T22:04:39.902Z,100.00
2022-10-23T22:07:47.784Z,100.00
2022-10-23T22:10:50.257Z,100.00
2022-10-23T22:13:52.975Z,100.00
2022-10-23T22:16:55.726Z,100.00
2022-10-23T22:19:58.213Z,100.00
2022-10-23T22:23:02.052Z,100.00
2022-10-23T22:26:05.977Z,100.00
2022-10-23T22:29:10.453Z,100.00
2022-10-23T22:32:12.985Z,100.00
2022-10-23T22:35:15.628Z,100.00
2022-10-23T22:38:19.467Z,100.00
2022-10-23T22:41:22.210Z,100.00
2022-10-23T22:44:24.710Z,100.00
2022-10-23T22:47:27.186Z,100.00
2022-10-23T22:50:29.677Z,100.00
2022-10-23T22:53:37.458Z,100.00
2022-10-23T22:56:40.046Z,100.00
2022-10-23T22:59:48.353Z,100.00
2022-10-23T23:02:50.891Z,100.00
2022-10-23T23:05:53.408Z,100.00
2022-10-23T23:08:57.271Z,100.00
2022-10-23T23:11:59.778Z,100.00
2022-10-23T23:15:02.283Z,100.00
2022-10-23T23:18:04.865Z,100.00
2022-10-23T23:21:07.350Z,100.00
2022-10-23T23:24:12.349Z,100.00
2022-10-23T23:27:14.825Z,100.00
2022-10-23T23:30:17.520Z,100.00
2022-10-23T23:33:20.012Z,100.00
2022-10-23T23:36:24.355Z,100.00
2022-10-23T23:39:28.468Z,100.00
2022-10-23T23:42:31.469Z,100.00
2022-10-23T23:45:34.153Z,100.00
2022-10-23T23:48:37.052Z,100.00
2022-10-23T23:51:39.548Z,100.00
2022-10-23T23:54:43.427Z,100.00
2022-10-23T23:57:46.250Z,100.00
